Time;durP1;ratioP1;P1;durP2;ratioP2;P2;SDS_P1;SDS_P2;PMS_P1;PMS_P2;Temp;Humidity;BMP_temperature;BMP_pressure;BME280_temperature;BME280_humidity;BME280_pressure;Samples;Min_cycle;Max_cycle;Signal;HPM_P1;HPM_P2
2022/04/11 00:00:39;;;;;;;1999.90;999.90;;;10.70;52.00;;;;;;5006421;28;20038;-82
2022/04/11 00:03:05;;;;;;;1999.90;999.90;;;10.70;52.00;;;;;;5020436;28;20029;-82
2022/04/11 00:05:31;;;;;;;1999.90;999.90;;;10.70;52.10;;;;;;5026139;28;20045;-83
2022/04/11 00:07:58;;;;;;;1999.90;999.90;;;10.70;52.10;;;;;;5030092;28;20397;-82
2022/04/11 00:10:24;;;;;;;1999.90;999.90;;;10.60;52.10;;;;;;5027062;28;20033;-83
2022/04/11 00:12:50;;;;;;;1999.90;999.90;;;10.60;52.20;;;;;;5010640;28;20025;-82
2022/04/11 00:15:16;;;;;;;1999.90;999.90;;;10.60;52.30;;;;;;4990660;28;20045;-83
2022/04/11 00:17:42;;;;;;;1999.90;999.90;;;10.50;52.50;;;;;;5027901;28;20037;-82
2022/04/11 00:20:08;;;;;;;1999.90;999.90;;;10.50;52.50;;;;;;5027600;28;20474;-82
2022/04/11 00:22:35;;;;;;;1999.90;999.90;;;10.50;52.60;;;;;;5030245;28;20033;-82
2022/04/11 00:25:05;;;;;;;1999.90;999.90;;;10.50;52.60;;;;;;5027718;28;20060;-82
2022/04/11 00:27:31;;;;;;;1999.90;999.90;;;10.50;52.70;;;;;;5029817;28;20033;-82
2022/04/11 00:29:57;;;;;;;1999.90;999.90;;;10.40;52.70;;;;;;5014833;28;20398;-82
2022/04/11 00:32:23;;;;;;;1999.90;999.90;;;10.40;52.70;;;;;;5031165;28;20060;-83
2022/04/11 00:34:49;;;;;;;1999.90;999.90;;;10.40;52.70;;;;;;5022704;28;20033;-83
2022/04/11 00:37:16;;;;;;;1999.90;999.90;;;10.40;52.80;;;;;;5032005;28;20034;-82
2022/04/11 00:39:42;;;;;;;1999.90;999.90;;;10.40;52.90;;;;;;5028968;28;20041;-83
2022/04/11 00:42:13;;;;;;;1999.90;999.90;;;10.40;52.90;;;;;;5026212;28;20040;-82
2022/04/11 00:44:39;;;;;;;;;;;10.40;52.90;;;;;;5015154;28;20033;-82
2022/04/11 00:47:05;;;;;;;1999.90;999.90;;;10.40;53.00;;;;;;5029189;28;19928;-83
2022/04/11 00:49:31;;;;;;;1999.90;999.90;;;10.40;53.00;;;;;;5033044;28;20038;-83
2022/04/11 00:51:57;;;;;;;1999.90;999.90;;;10.40;53.00;;;;;;5031686;28;20030;-82
2022/04/11 00:54:25;;;;;;;1999.90;999.90;;;10.30;53.00;;;;;;5029534;28;20049;-82
2022/04/11 00:56:52;;;;;;;1999.90;999.90;;;10.40;53.10;;;;;;4994145;28;20038;-82
2022/04/11 00:59:18;;;;;;;1999.90;999.90;;;10.40;53.10;;;;;;5030854;28;20414;-82
2022/04/11 01:01:44;;;;;;;1999.90;999.90;;;10.30;53.10;;;;;;5015938;28;20029;-82
2022/04/11 01:04:23;;;;;;;1999.90;999.90;;;10.30;53.20;;;;;;5002743;28;20029;-82
2022/04/11 01:06:50;;;;;;;1999.90;999.90;;;10.20;53.40;;;;;;5030750;28;20394;-83
2022/04/11 01:09:17;;;;;;;1999.90;999.90;;;10.20;53.50;;;;;;5031976;28;20044;-82
2022/04/11 01:11:43;;;;;;;1999.90;999.90;;;10.20;53.60;;;;;;5013615;28;20032;-83
2022/04/11 01:14:09;;;;;;;1999.90;999.90;;;10.10;53.70;;;;;;5029816;28;20029;-83
2022/04/11 01:16:35;;;;;;;1999.90;999.90;;;10.10;53.70;;;;;;5014846;28;20026;-82
2022/04/11 01:19:01;;;;;;;1999.90;999.90;;;10.10;53.70;;;;;;5029299;28;21356;-82
2022/04/11 01:21:28;;;;;;;1999.90;999.90;;;10.10;53.70;;;;;;5032235;28;20029;-82
2022/04/11 01:23:54;;;;;;;1999.90;999.90;;;10.10;53.70;;;;;;5028824;28;20026;-83
2022/04/11 01:26:21;;;;;;;1999.90;999.90;;;10.10;53.70;;;;;;5017361;28;20042;-83
2022/04/11 01:28:47;;;;;;;1999.90;999.90;;;10.10;53.70;;;;;;5032712;28;20026;-83
2022/04/11 01:31:13;;;;;;;1999.90;999.90;;;10.10;53.80;;;;;;5027325;28;20521;-83
2022/04/11 01:33:39;;;;;;;1999.90;999.90;;;10.10;53.90;;;;;;5024909;28;20028;-83
2022/04/11 01:36:05;;;;;;;1999.90;999.90;;;10.00;54.00;;;;;;5031939;28;20030;-82
2022/04/11 01:38:32;;;;;;;1999.90;999.90;;;10.00;54.70;;;;;;5027893;28;20394;-82
2022/04/11 01:40:58;;;;;;;1999.90;999.90;;;10.00;54.30;;;;;;5033007;28;20038;-83
2022/04/11 01:43:24;;;;;;;1999.90;999.90;;;9.90;54.40;;;;;;5028894;28;20032;-83
2022/04/11 01:45:50;;;;;;;1999.90;999.90;;;9.90;54.60;;;;;;5028897;28;20053;-82
2022/04/11 01:48:17;;;;;;;1999.90;999.90;;;9.90;54.50;;;;;;5028940;28;20033;-83
2022/04/11 01:50:43;;;;;;;1999.90;999.90;;;9.80;54.50;;;;;;4995975;28;20041;-83
2022/04/11 01:53:14;;;;;;;1999.90;999.90;;;9.80;54.60;;;;;;5028703;28;20061;-82
2022/04/11 01:55:40;;;;;;;1999.90;999.90;;;9.80;54.80;;;;;;5032642;28;20060;-82
2022/04/11 01:58:07;;;;;;;1999.90;999.90;;;9.70;54.80;;;;;;4995036;28;20428;-82
2022/04/11 02:00:33;;;;;;;1999.90;999.90;;;9.80;54.90;;;;;;5028947;28;20502;-83
2022/04/11 02:02:59;;;;;;;1999.90;999.90;;;9.70;54.90;;;;;;5011817;28;20040;-83
2022/04/11 02:05:26;;;;;;;1999.90;999.90;;;9.70;55.00;;;;;;5006814;28;20442;-82
2022/04/11 02:07:53;;;;;;;1999.90;999.90;;;9.70;55.10;;;;;;5032186;28;20386;-83
2022/04/11 02:10:19;;;;;;;1999.90;999.90;;;9.70;55.20;;;;;;5014919;28;20501;-82
2022/04/11 02:12:47;;;;;;;1999.90;999.90;;;9.70;55.30;;;;;;5012049;28;20040;-83
2022/04/11 02:15:13;;;;;;;1999.90;999.90;;;9.60;55.20;;;;;;5027066;28;20030;-82
2022/04/11 02:17:39;;;;;;;1999.90;999.90;;;9.60;55.40;;;;;;5028257;28;20033;-82
2022/04/11 02:20:06;;;;;;;1999.90;999.90;;;9.60;55.40;;;;;;5013100;28;20049;-83
2022/04/11 02:23:02;;;;;;;1999.90;999.90;;;9.60;55.50;;;;;;5024007;28;20100;-83
2022/04/11 02:25:29;;;;;;;1999.90;999.90;;;9.50;55.30;;;;;;5015180;28;20049;-83
2022/04/11 02:27:57;;;;;;;1999.90;999.90;;;9.60;55.40;;;;;;5027558;28;20022;-82
2022/04/11 02:30:23;;;;;;;1999.90;999.90;;;9.60;55.40;;;;;;5029269;28;20041;-82
2022/04/11 02:32:49;;;;;;;1999.90;999.90;;;9.60;55.40;;;;;;5028432;28;20029;-83
2022/04/11 02:35:16;;;;;;;1999.90;999.90;;;9.60;55.40;;;;;;5029586;28;20030;-80
2022/04/11 02:37:44;;;;;;;1999.90;999.90;;;9.60;55.40;;;;;;5029641;28;20036;-80
2022/04/11 02:40:10;;;;;;;1999.90;999.90;;;9.60;55.40;;;;;;5037272;28;20470;-81
2022/04/11 02:42:36;;;;;;;1999.90;999.90;;;9.60;55.20;;;;;;5025983;28;20045;-79
2022/04/11 02:45:02;;;;;;;1999.90;999.90;;;9.60;55.10;;;;;;5029758;28;20026;-79
2022/04/11 02:47:29;;;;;;;1999.90;999.90;;;9.70;55.20;;;;;;5037388;28;20033;-79
2022/04/11 02:49:55;;;;;;;1999.90;999.90;;;9.70;55.10;;;;;;5010705;28;20030;-79
2022/04/11 02:52:21;;;;;;;1999.90;999.90;;;9.70;55.10;;;;;;5011564;28;20037;-80
2022/04/11 02:54:47;;;;;;;1999.90;999.90;;;9.80;55.10;;;;;;5013094;28;20045;-79
2022/04/11 02:57:13;;;;;;;1999.90;999.90;;;9.70;55.10;;;;;;5003052;28;20034;-79
2022/04/11 02:59:39;;;;;;;1999.90;999.90;;;9.70;55.20;;;;;;5029497;28;20501;-82
2022/04/11 03:02:05;;;;;;;1999.90;999.90;;;9.70;55.30;;;;;;5025201;28;20040;-81
2022/04/11 03:04:31;;;;;;;1999.90;999.90;;;9.60;55.30;;;;;;5030852;28;20040;-83
2022/04/11 03:06:58;;;;;;;1999.90;999.90;;;9.60;55.30;;;;;;4994080;28;20041;-82
2022/04/11 03:09:24;;;;;;;1999.90;999.90;;;9.60;55.40;;;;;;5002851;28;20042;-82
2022/04/11 03:11:50;;;;;;;1999.90;999.90;;;9.60;55.50;;;;;;4995484;28;20044;-82
2022/04/11 03:14:16;;;;;;;1999.90;999.90;;;9.60;55.70;;;;;;5023393;28;20037;-81
2022/04/11 03:16:42;;;;;;;1999.90;999.90;;;9.50;55.80;;;;;;5011421;28;20053;-82
2022/04/11 03:19:09;;;;;;;1999.90;999.90;;;9.40;55.80;;;;;;5030249;28;20029;-81
2022/04/11 03:21:35;;;;;;;1999.90;999.90;;;9.40;56.00;;;;;;5028086;28;20037;-81
2022/04/11 03:24:01;;;;;;;1999.90;999.90;;;9.40;56.10;;;;;;5028825;28;20505;-81
2022/04/11 03:26:27;;;;;;;1999.90;999.90;;;9.30;56.20;;;;;;5010778;28;20425;-82
2022/04/11 03:28:53;;;;;;;1999.90;999.90;;;9.30;56.30;;;;;;5019748;28;20030;-80
2022/04/11 03:31:20;;;;;;;1999.90;999.90;;;9.30;56.50;;;;;;5027394;28;20068;-80
2022/04/11 03:33:46;;;;;;;1999.90;999.90;;;9.20;56.50;;;;;;5025569;28;20040;-82
2022/04/11 03:36:12;;;;;;;1999.90;999.90;;;9.20;56.70;;;;;;5021330;28;20029;-80
2022/04/11 03:38:39;;;;;;;1999.90;999.90;;;9.20;56.90;;;;;;5024400;28;20049;-81
2022/04/11 03:41:05;;;;;;;1999.90;999.90;;;9.10;57.00;;;;;;5023405;28;20511;-81
2022/04/11 03:43:32;;;;;;;1999.90;999.90;;;9.10;57.10;;;;;;5031275;28;20033;-81
2022/04/11 03:45:58;;;;;;;1999.90;999.90;;;9.10;57.20;;;;;;5031768;28;20041;-81
2022/04/11 03:48:24;;;;;;;1999.90;999.90;;;9.10;57.30;;;;;;5011159;28;20070;-81
2022/04/11 03:50:50;;;;;;;1999.90;999.90;;;9.00;57.30;;;;;;5026743;28;20025;-80
2022/04/11 03:53:16;;;;;;;1999.90;999.90;;;9.00;57.40;;;;;;5027727;28;20042;-81
2022/04/11 03:55:42;;;;;;;1999.90;999.90;;;9.00;57.40;;;;;;5027698;28;20036;-80
2022/04/11 03:58:09;;;;;;;1999.90;999.90;;;9.00;57.50;;;;;;5026934;28;20021;-81
2022/04/11 04:00:35;;;;;;;1999.90;999.90;;;9.00;57.60;;;;;;5011422;28;20041;-81
2022/04/11 04:03:11;;;;;;;1999.90;999.90;;;9.00;57.70;;;;;;5028023;28;20032;-79
2022/04/11 04:05:45;;;;;;;1999.90;999.90;;;9.00;57.80;;;;;;5018421;28;20034;-80
2022/04/11 04:08:11;;;;;;;1999.90;999.90;;;9.00;57.80;;;;;;5010081;28;20033;-81
2022/04/11 04:10:37;;;;;;;1999.90;999.90;;;8.90;57.90;;;;;;5028567;28;20037;-82
2022/04/11 04:13:04;;;;;;;1999.90;999.90;;;8.90;58.00;;;;;;5028023;28;20032;-80
2022/04/11 04:15:30;;;;;;;1999.90;999.90;;;8.90;58.10;;;;;;5025283;28;20514;-80
2022/04/11 04:17:56;;;;;;;1999.90;999.90;;;8.90;58.20;;;;;;5025823;28;20088;-81
2022/04/11 04:20:25;;;;;;;1999.90;999.90;;;8.90;58.20;;;;;;5028729;28;20029;-83
2022/04/11 04:22:56;;;;;;;1999.90;999.90;;;8.80;58.30;;;;;;5025549;28;20026;-83
2022/04/11 04:25:23;;;;;;;1999.90;999.90;;;8.80;58.60;;;;;;5031257;28;20041;-83
2022/04/11 04:27:49;;;;;;;1999.90;999.90;;;8.80;58.60;;;;;;5013618;28;20483;-83
2022/04/11 04:30:15;;;;;;;1999.90;999.90;;;8.80;58.60;;;;;;5029893;28;20052;-83
2022/04/11 04:32:41;;;;;;;1999.90;999.90;;;8.80;58.60;;;;;;5013281;28;20041;-83
2022/04/11 04:35:08;;;;;;;1999.90;999.90;;;8.80;58.70;;;;;;5029789;28;20036;-83
2022/04/11 04:37:34;;;;;;;1999.90;999.90;;;8.80;58.70;;;;;;4993365;28;20050;-83
2022/04/11 04:40:00;;;;;;;1999.90;999.90;;;8.70;58.90;;;;;;5029619;28;20037;-83
2022/04/11 04:42:26;;;;;;;1999.90;999.90;;;8.70;59.10;;;;;;5029864;28;20390;-83
2022/04/11 04:44:53;;;;;;;1999.90;999.90;;;8.70;59.10;;;;;;5013405;28;20041;-82
2022/04/11 04:47:19;;;;;;;1999.90;999.90;;;8.70;59.20;;;;;;5023210;28;20057;-83
2022/04/11 04:49:45;;;;;;;1999.90;999.90;;;8.70;59.30;;;;;;5007837;28;20049;-83
2022/04/11 04:52:12;;;;;;;1999.90;999.90;;;8.70;59.40;;;;;;5013370;28;20030;-83
2022/04/11 04:54:38;;;;;;;1999.90;999.90;;;8.60;59.30;;;;;;5013393;28;20053;-83
2022/04/11 04:57:05;;;;;;;1999.90;999.90;;;8.60;59.40;;;;;;5029509;28;20033;-83
2022/04/11 04:59:31;;;;;;;1999.90;999.90;;;8.50;59.50;;;;;;5013250;28;20040;-83
2022/04/11 05:01:57;;;;;;;1999.90;999.90;;;8.60;59.70;;;;;;5029229;28;20410;-83
2022/04/11 05:04:23;;;;;;;1999.90;999.90;;;8.50;59.70;;;;;;4993908;28;20042;-84
2022/04/11 05:06:49;;;;;;;1999.90;999.90;;;8.50;59.70;;;;;;5029217;28;20046;-83
2022/04/11 05:09:15;;;;;;;1999.90;999.90;;;8.50;59.80;;;;;;5028837;28;20514;-84
2022/04/11 05:11:41;;;;;;;1999.90;999.90;;;8.50;59.90;;;;;;5027835;28;20398;-83
2022/04/11 05:14:07;;;;;;;1999.90;999.90;;;8.50;59.90;;;;;;5032853;28;20026;-84
2022/04/11 05:16:34;;;;;;;1999.90;999.90;;;8.50;60.00;;;;;;5033409;28;20036;-83
2022/04/11 05:19:00;;;;;;;1999.90;999.90;;;8.50;60.20;;;;;;5033506;28;20041;-83
2022/04/11 05:21:26;;;;;;;1999.90;999.90;;;8.40;60.20;;;;;;5016560;28;20052;-84
2022/04/11 05:23:52;;;;;;;1999.90;999.90;;;8.50;60.20;;;;;;5032500;28;20033;-83
2022/04/11 05:26:18;;;;;;;1999.90;999.90;;;8.40;60.10;;;;;;4999944;28;20053;-83
2022/04/11 05:28:45;;;;;;;1999.90;999.90;;;8.40;60.10;;;;;;5034661;28;20030;-83
2022/04/11 05:31:11;;;;;;;1999.90;999.90;;;8.50;60.10;;;;;;5032728;28;20504;-83
2022/04/11 05:33:37;;;;;;;1999.90;999.90;;;8.50;60.10;;;;;;5034258;28;20065;-83
2022/04/11 05:36:04;;;;;;;1999.90;999.90;;;8.50;60.00;;;;;;5016405;28;20033;-83
2022/04/11 05:38:30;;;;;;;1999.90;999.90;;;8.50;60.00;;;;;;5034043;28;20379;-83
2022/04/11 05:40:58;;;;;;;1999.90;999.90;;;8.50;59.90;;;;;;5016589;28;20041;-83
2022/04/11 05:43:25;;;;;;;1999.90;999.90;;;8.60;59.90;;;;;;5001815;28;20046;-83
2022/04/11 05:45:51;;;;;;;1999.90;999.90;;;8.60;59.80;;;;;;5028635;28;20044;-83
2022/04/11 05:48:17;;;;;;;1999.90;999.90;;;8.60;59.80;;;;;;5035378;28;20048;-83
2022/04/11 05:50:43;;;;;;;1999.90;999.90;;;8.70;59.70;;;;;;5031536;28;20034;-84
2022/04/11 05:53:09;;;;;;;1999.90;999.90;;;8.70;59.60;;;;;;5031525;28;20042;-95
2022/04/11 05:55:35;;;;;;;1999.90;999.90;;;8.70;59.50;;;;;;5039640;28;20421;-92
2022/04/11 05:58:01;;;;;;;1999.90;999.90;;;8.70;59.50;;;;;;5014166;28;20053;-92
2022/04/11 06:00:27;;;;;;;1999.90;999.90;;;8.80;59.50;;;;;;5007886;28;20371;-92
2022/04/11 06:02:53;;;;;;;1999.90;999.90;;;8.80;59.50;;;;;;5026041;28;20033;-93
2022/04/11 06:05:20;;;;;;;1999.90;999.90;;;8.80;59.60;;;;;;5009688;28;20050;-95
2022/04/11 06:07:46;;;;;;;1999.90;999.90;;;8.80;59.60;;;;;;5036264;28;20045;-92
2022/04/11 06:10:12;;;;;;;1999.90;999.90;;;8.80;59.60;;;;;;5012464;28;20038;-93
2022/04/11 06:12:38;;;;;;;1999.90;999.90;;;8.80;59.50;;;;;;5033499;28;20034;-89
2022/04/11 06:15:05;;;;;;;1999.90;999.90;;;8.90;59.50;;;;;;5032202;28;20378;-92
2022/04/11 06:17:31;;;;;;;1999.90;999.90;;;8.90;59.50;;;;;;4999776;28;20716;-89
2022/04/11 06:19:58;;;;;;;1999.90;999.90;;;8.90;59.40;;;;;;5036502;28;20033;-89
2022/04/11 06:22:24;;;;;;;1999.90;999.90;;;9.00;59.50;;;;;;5018737;28;20037;-94
2022/04/11 06:24:51;;;;;;;1999.90;999.90;;;9.00;59.60;;;;;;5034216;28;20038;-95
2022/04/11 06:27:17;;;;;;;1999.90;999.90;;;9.00;59.60;;;;;;5030588;28;20505;-90
2022/04/11 06:29:44;;;;;;;1999.90;999.90;;;9.00;59.60;;;;;;4994298;28;20479;-94
2022/04/11 06:32:10;;;;;;;1999.90;999.90;;;9.00;59.50;;;;;;5029455;28;20029;-82
2022/04/11 06:34:36;;;;;;;1999.90;999.90;;;9.10;59.50;;;;;;5031525;28;20021;-86
2022/04/11 06:37:03;;;;;;;1999.90;999.90;;;9.10;59.40;;;;;;5027987;28;20383;-82
2022/04/11 06:39:29;;;;;;;1999.90;999.90;;;9.20;59.50;;;;;;5023519;28;20029;-85
2022/04/11 06:41:56;;;;;;;1999.90;999.90;;;9.20;59.30;;;;;;5029098;28;20033;-84
2022/04/11 06:44:22;;;;;;;1999.90;999.90;;;9.30;59.40;;;;;;5028928;28;20026;-82
2022/04/11 06:46:48;;;;;;;1999.90;999.90;;;9.30;59.30;;;;;;5014807;28;20045;-86
2022/04/11 06:49:15;;;;;;;1999.90;999.90;;;9.40;59.30;;;;;;5008287;28;20045;-91
2022/04/11 06:51:41;;;;;;;1999.90;999.90;;;9.40;59.30;;;;;;5031161;28;20471;-93
2022/04/11 06:54:07;;;;;;;1999.90;999.90;;;9.50;59.20;;;;;;5027588;28;20045;-84
2022/04/11 06:56:33;;;;;;;1999.90;999.90;;;9.50;59.10;;;;;;5025146;28;20510;-81
2022/04/11 06:58:59;;;;;;;1999.90;999.90;;;9.60;59.10;;;;;;5025800;28;20030;-79
2022/04/11 07:01:25;;;;;;;1999.90;999.90;;;9.70;59.00;;;;;;5009977;28;20037;-79
2022/04/11 07:03:52;;;;;;;1999.90;999.90;;;9.80;58.90;;;;;;5016560;28;20030;-79
2022/04/11 07:06:18;;;;;;;1999.90;999.90;;;9.90;58.80;;;;;;5025260;28;20037;-79
2022/04/11 07:08:45;;;;;;;1999.90;999.90;;;10.00;58.60;;;;;;5031264;28;20035;-82
2022/04/11 07:11:11;;;;;;;1999.90;999.90;;;10.20;58.60;;;;;;5018311;28;21240;-82
2022/04/11 07:13:37;;;;;;;1999.90;999.90;;;10.30;58.40;;;;;;5019188;28;20034;-81
2022/04/11 07:16:04;;;;;;;1999.90;999.90;;;10.50;58.20;;;;;;5020225;28;20037;-81
2022/04/11 07:18:31;;;;;;;1999.90;999.90;;;10.70;58.10;;;;;;5009500;28;20413;-81
2022/04/11 07:20:58;;;;;;;1999.90;999.90;;;10.80;57.90;;;;;;5008682;28;20049;-80
2022/04/11 07:23:24;;;;;;;1999.90;999.90;;;10.90;57.80;;;;;;5029580;28;20430;-81
2022/04/11 07:25:50;;;;;;;1999.90;999.90;;;11.00;57.70;;;;;;5026285;28;20046;-80
2022/04/11 07:28:17;;;;;;;1999.90;999.90;;;11.10;57.60;;;;;;5025838;28;20037;-80
2022/04/11 07:30:43;;;;;;;1999.90;999.90;;;11.20;57.50;;;;;;5028731;28;20493;-81
2022/04/11 07:33:09;;;;;;;1999.90;999.90;;;11.30;57.50;;;;;;5030488;28;20033;-81
2022/04/11 07:35:36;;;;;;;1999.90;999.90;;;11.30;57.30;;;;;;5030608;28;20033;-81
2022/04/11 07:38:02;;;;;;;1999.90;999.90;;;11.40;57.20;;;;;;5014100;28;20458;-81
2022/04/11 07:40:29;;;;;;;1999.90;999.90;;;11.60;57.10;;;;;;5007392;28;20033;-81
2022/04/11 07:42:55;;;;;;;1999.90;999.90;;;11.70;56.90;;;;;;5023359;28;20050;-82
2022/04/11 07:45:21;;;;;;;1999.90;999.90;;;11.80;56.80;;;;;;5011359;28;20038;-81
2022/04/11 07:47:48;;;;;;;1999.90;999.90;;;12.00;56.60;;;;;;5042705;28;20041;-81
2022/04/11 07:50:14;;;;;;;1999.90;999.90;;;12.10;56.40;;;;;;5029811;28;20386;-82
2022/04/11 07:52:41;;;;;;;1999.90;999.90;;;12.20;56.30;;;;;;5027358;28;20041;-81
2022/04/11 07:55:08;;;;;;;1999.90;999.90;;;12.30;56.20;;;;;;5029411;28;20426;-80
2022/04/11 07:57:34;;;;;;;1999.90;999.90;;;12.40;56.20;;;;;;5009539;28;20041;-80
2022/04/11 08:00:00;;;;;;;1999.90;999.90;;;12.60;56.10;;;;;;5027485;28;20033;-81
2022/04/11 08:02:26;;;;;;;1999.90;999.90;;;12.70;55.80;;;;;;5028437;28;20513;-81
2022/04/11 08:04:52;;;;;;;1999.90;999.90;;;12.90;55.60;;;;;;5030214;28;20033;-81
2022/04/11 08:07:19;;;;;;;1999.90;999.90;;;13.00;55.40;;;;;;5026500;28;20042;-81
2022/04/11 08:09:45;;;;;;;1999.90;999.90;;;13.20;55.20;;;;;;5025232;28;20225;-81
2022/04/11 08:12:11;;;;;;;1999.90;999.90;;;13.40;54.90;;;;;;5021644;28;20029;-81
2022/04/11 08:14:37;;;;;;;1999.90;999.90;;;13.60;54.60;;;;;;5012483;28;20053;-81
2022/04/11 08:17:03;;;;;;;1999.90;999.90;;;13.90;54.70;;;;;;5010320;28;20041;-81
2022/04/11 08:19:30;;;;;;;1999.90;999.90;;;14.10;53.60;;;;;;5023826;28;20061;-81
2022/04/11 08:21:56;;;;;;;1999.90;999.90;;;14.40;53.40;;;;;;4994542;28;20052;-81
2022/04/11 08:24:23;;;;;;;1999.90;999.90;;;14.60;52.90;;;;;;5010105;28;20041;-81
2022/04/11 08:26:49;;;;;;;1999.90;999.90;;;14.80;52.50;;;;;;5028547;28;20048;-81
2022/04/11 08:29:17;;;;;;;1999.90;999.90;;;15.00;52.50;;;;;;5014347;28;20032;-81
2022/04/11 08:31:44;;;;;;;1999.90;999.90;;;15.30;52.20;;;;;;5026541;28;20445;-81
2022/04/11 08:34:10;;;;;;;1999.90;999.90;;;15.50;52.50;;;;;;5027543;28;20467;-81
2022/04/11 08:36:36;;;;;;;1999.90;999.90;;;15.80;51.70;;;;;;5012573;28;20033;-81
2022/04/11 08:39:02;;;;;;;1999.90;999.90;;;16.00;51.40;;;;;;5030962;28;20036;-81
2022/04/11 08:41:33;;;;;;;1999.90;999.90;;;16.20;51.10;;;;;;5013606;28;20021;-81
2022/04/11 08:44:04;;;;;;;1999.90;999.90;;;16.30;50.90;;;;;;5027573;28;20033;-80
2022/04/11 08:46:31;;;;;;;1999.90;999.90;;;16.50;50.90;;;;;;5039250;28;20048;-81
2022/04/11 08:48:59;;;;;;;1999.90;999.90;;;16.60;50.80;;;;;;5037103;28;20033;-81
2022/04/11 08:51:25;;;;;;;1999.90;999.90;;;16.90;50.60;;;;;;5017256;28;20038;-81
2022/04/11 08:53:52;;;;;;;1999.90;999.90;;;17.00;50.30;;;;;;5033245;28;20044;-81
2022/04/11 08:56:18;;;;;;;1999.90;999.90;;;17.10;50.10;;;;;;5033769;28;20397;-81
2022/04/11 08:58:44;;;;;;;1999.90;999.90;;;17.10;49.90;;;;;;5017933;28;20037;-81
2022/04/11 09:01:10;;;;;;;1999.90;999.90;;;17.10;49.70;;;;;;5033051;28;20029;-81
2022/04/11 09:03:36;;;;;;;1999.90;999.90;;;17.10;49.90;;;;;;5014746;28;20029;-81
2022/04/11 09:06:08;;;;;;;1999.90;999.90;;;17.20;49.90;;;;;;5025399;28;20021;-81
2022/04/11 09:08:55;;;;;;;1999.90;999.90;;;17.30;49.80;;;;;;5033585;28;20041;-81
2022/04/11 09:11:35;;;;;;;1999.90;999.90;;;17.60;49.60;;;;;;5018065;28;20036;-81
2022/04/11 09:14:02;;;;;;;1999.90;999.90;;;18.00;49.30;;;;;;5018498;28;20033;-81
2022/04/11 09:16:47;;;;;;;1999.90;999.90;;;18.20;48.80;;;;;;5031839;28;20045;-81
2022/04/11 09:19:27;;;;;;;1999.90;999.90;;;18.30;48.90;;;;;;5033897;28;20056;-81
2022/04/11 09:21:56;;;;;;;1999.90;999.90;;;18.40;48.70;;;;;;5033249;28;20037;-81
2022/04/11 09:24:24;;;;;;;1999.90;999.90;;;18.40;48.60;;;;;;5033466;28;20493;-81
2022/04/11 09:26:54;;;;;;;1999.90;999.90;;;18.40;48.60;;;;;;5016785;28;20044;-81
2022/04/11 09:29:20;;;;;;;1999.90;999.90;;;18.40;48.60;;;;;;5032248;28;20045;-81
2022/04/11 09:31:46;;;;;;;1999.90;999.90;;;18.50;48.70;;;;;;5033277;28;20406;-81
2022/04/11 09:34:16;;;;;;;1999.90;999.90;;;18.40;48.60;;;;;;5034710;28;20036;-81
2022/04/11 09:36:43;;;;;;;1999.90;999.90;;;18.40;48.60;;;;;;5032384;28;20030;-81
2022/04/11 09:39:09;;;;;;;1999.90;999.90;;;18.30;48.60;;;;;;5016120;28;20045;-81
2022/04/11 09:41:38;;;;;;;1999.90;999.90;;;18.30;48.80;;;;;;5033086;28;20474;-81
2022/04/11 09:44:27;;;;;;;1999.90;999.90;;;18.40;48.70;;;;;;5016780;28;20045;-81
2022/04/11 09:47:03;;;;;;;1999.90;999.90;;;18.60;48.50;;;;;;5040378;28;20391;-81
2022/04/11 09:49:29;;;;;;;1999.90;999.90;;;18.80;48.10;;;;;;5031831;28;20495;-81
2022/04/11 09:52:12;;;;;;;1999.90;999.90;;;18.90;48.00;;;;;;5016077;28;20233;-81
2022/04/11 09:54:44;;;;;;;1999.90;999.90;;;19.00;47.90;;;;;;5016353;28;20049;-81
2022/04/11 09:57:15;;;;;;;1999.90;999.90;;;19.20;47.70;;;;;;5016358;28;20030;-81
2022/04/11 09:59:41;;;;;;;1999.90;999.90;;;19.20;47.50;;;;;;5032122;28;20044;-81
2022/04/11 10:02:10;;;;;;;1999.90;999.90;;;19.20;47.60;;;;;;5029437;28;20049;-83
